sensor_id;sensor_type;location;lat;lon;timestamp;P1;durP1;ratioP1;P2;durP2;ratioP2
417;SDS011;49;48.530;9.200;2024-02-21T00:02:20;28.90;;;12.10;;
417;SDS011;49;48.530;9.200;2024-02-21T00:04:48;29.40;;;11.90;;
417;SDS011;49;48.530;9.200;2024-02-21T00:07:15;23.83;;;12.10;;
417;SDS011;49;48.530;9.200;2024-02-21T00:09:42;31.80;;;12.33;;
417;SDS011;49;48.530;9.200;2024-02-21T00:12:09;17.23;;;10.40;;
417;SDS011;49;48.530;9.200;2024-02-21T00:14:38;33.07;;;12.30;;
417;SDS011;49;48.530;9.200;2024-02-21T00:17:05;24.80;;;10.93;;
417;SDS011;49;48.530;9.200;2024-02-21T00:19:33;22.40;;;9.40;;
417;SDS011;49;48.530;9.200;2024-02-21T00:22:02;17.50;;;9.40;;
417;SDS011;49;48.530;9.200;2024-02-21T00:24:29;20.00;;;10.30;;
417;SDS011;49;48.530;9.200;2024-02-21T00:26:56;30.47;;;10.47;;
417;SDS011;49;48.530;9.200;2024-02-21T00:29:22;29.40;;;10.27;;
417;SDS011;49;48.530;9.200;2024-02-21T00:31:49;33.10;;;10.87;;
417;SDS011;49;48.530;9.200;2024-02-21T00:34:17;32.63;;;11.87;;
417;SDS011;49;48.530;9.200;2024-02-21T00:36:44;21.37;;;10.17;;
417;SDS011;49;48.530;9.200;2024-02-21T00:39:12;24.70;;;9.60;;
417;SDS011;49;48.530;9.200;2024-02-21T00:41:39;19.77;;;8.87;;
417;SDS011;49;48.530;9.200;2024-02-21T00:44:06;22.93;;;9.93;;
417;SDS011;49;48.530;9.200;2024-02-21T00:46:33;27.03;;;10.40;;
417;SDS011;49;48.530;9.200;2024-02-21T00:49:00;23.70;;;10.50;;
417;SDS011;49;48.530;9.200;2024-02-21T00:51:27;31.63;;;9.93;;
417;SDS011;49;48.530;9.200;2024-02-21T00:53:54;24.87;;;9.63;;
417;SDS011;49;48.530;9.200;2024-02-21T00:56:22;24.47;;;8.70;;
417;SDS011;49;48.530;9.200;2024-02-21T00:58:49;27.53;;;10.30;;
417;SDS011;49;48.530;9.200;2024-02-21T01:01:20;22.70;;;9.40;;
417;SDS011;49;48.530;9.200;2024-02-21T01:03:48;19.13;;;9.07;;
417;SDS011;49;48.530;9.200;2024-02-21T01:06:16;24.30;;;8.40;;
417;SDS011;49;48.530;9.200;2024-02-21T01:08:43;23.93;;;8.53;;
417;SDS011;49;48.530;9.200;2024-02-21T01:11:10;22.20;;;9.73;;
417;SDS011;49;48.530;9.200;2024-02-21T01:13:38;24.20;;;8.90;;
417;SDS011;49;48.530;9.200;2024-02-21T01:16:05;20.13;;;9.30;;
417;SDS011;49;48.530;9.200;2024-02-21T01:18:32;18.87;;;9.50;;
417;SDS011;49;48.530;9.200;2024-02-21T01:21:00;22.67;;;7.83;;
417;SDS011;49;48.530;9.200;2024-02-21T01:23:26;22.10;;;8.80;;
417;SDS011;49;48.530;9.200;2024-02-21T01:25:53;22.03;;;7.57;;
417;SDS011;49;48.530;9.200;2024-02-21T01:28:20;30.93;;;8.50;;
417;SDS011;49;48.530;9.200;2024-02-21T01:30:48;23.70;;;8.03;;
417;SDS011;49;48.530;9.200;2024-02-21T01:33:15;21.17;;;7.83;;
417;SDS011;49;48.530;9.200;2024-02-21T01:35:42;22.53;;;7.00;;
417;SDS011;49;48.530;9.200;2024-02-21T01:38:09;26.30;;;7.47;;
417;SDS011;49;48.530;9.200;2024-02-21T01:40:36;20.50;;;7.70;;
417;SDS011;49;48.530;9.200;2024-02-21T01:43:03;17.00;;;7.37;;
417;SDS011;49;48.530;9.200;2024-02-21T01:45:30;18.00;;;7.30;;
417;SDS011;49;48.530;9.200;2024-02-21T01:47:58;16.90;;;6.77;;
417;SDS011;49;48.530;9.200;2024-02-21T01:50:25;15.37;;;7.03;;
417;SDS011;49;48.530;9.200;2024-02-21T01:52:52;27.37;;;7.50;;
417;SDS011;49;48.530;9.200;2024-02-21T01:55:19;20.47;;;6.70;;
417;SDS011;49;48.530;9.200;2024-02-21T01:57:46;25.53;;;7.37;;
417;SDS011;49;48.530;9.200;2024-02-21T02:00:13;21.37;;;7.87;;
417;SDS011;49;48.530;9.200;2024-02-21T02:02:40;17.63;;;7.70;;
417;SDS011;49;48.530;9.200;2024-02-21T02:05:11;21.67;;;8.00;;
417;SDS011;49;48.530;9.200;2024-02-21T02:07:38;19.80;;;8.43;;
417;SDS011;49;48.530;9.200;2024-02-21T02:10:05;17.57;;;7.20;;
417;SDS011;49;48.530;9.200;2024-02-21T02:12:33;24.40;;;8.50;;
417;SDS011;49;48.530;9.200;2024-02-21T02:15:00;20.90;;;9.20;;
417;SDS011;49;48.530;9.200;2024-02-21T02:17:29;22.87;;;9.00;;
417;SDS011;49;48.530;9.200;2024-02-21T02:19:56;28.13;;;9.10;;
417;SDS011;49;48.530;9.200;2024-02-21T02:22:26;22.17;;;8.50;;
417;SDS011;49;48.530;9.200;2024-02-21T02:24:56;28.73;;;8.30;;
417;SDS011;49;48.530;9.200;2024-02-21T02:27:25;21.27;;;8.17;;
417;SDS011;49;48.530;9.200;2024-02-21T02:29:51;29.80;;;10.17;;
417;SDS011;49;48.530;9.200;2024-02-21T02:32:18;31.60;;;9.03;;
417;SDS011;49;48.530;9.200;2024-02-21T02:34:45;22.47;;;7.60;;
417;SDS011;49;48.530;9.200;2024-02-21T02:37:12;26.50;;;8.70;;
417;SDS011;49;48.530;9.200;2024-02-21T02:39:39;18.50;;;8.30;;
417;SDS011;49;48.530;9.200;2024-02-21T02:42:07;16.87;;;8.17;;
417;SDS011;49;48.530;9.200;2024-02-21T02:44:34;23.47;;;8.67;;
417;SDS011;49;48.530;9.200;2024-02-21T02:47:02;27.20;;;9.10;;
417;SDS011;49;48.530;9.200;2024-02-21T02:49:29;20.40;;;8.50;;
417;SDS011;49;48.530;9.200;2024-02-21T02:51:56;32.50;;;8.63;;
417;SDS011;49;48.530;9.200;2024-02-21T02:54:23;24.47;;;8.97;;
417;SDS011;49;48.530;9.200;2024-02-21T02:56:50;16.57;;;8.03;;
417;SDS011;49;48.530;9.200;2024-02-21T02:59:18;27.17;;;8.90;;
417;SDS011;49;48.530;9.200;2024-02-21T03:01:45;26.50;;;7.50;;
417;SDS011;49;48.530;9.200;2024-02-21T03:04:10;26.80;;;7.80;;
417;SDS011;49;48.530;9.200;2024-02-21T03:06:37;21.60;;;8.00;;
417;SDS011;49;48.530;9.200;2024-02-21T03:09:04;29.03;;;8.20;;
417;SDS011;49;48.530;9.200;2024-02-21T03:11:33;19.93;;;7.30;;
417;SDS011;49;48.530;9.200;2024-02-21T03:14:01;24.23;;;8.53;;
417;SDS011;49;48.530;9.200;2024-02-21T03:16:30;18.53;;;7.50;;
417;SDS011;49;48.530;9.200;2024-02-21T03:18:57;20.03;;;7.47;;
417;SDS011;49;48.530;9.200;2024-02-21T03:21:23;14.33;;;7.13;;
417;SDS011;49;48.530;9.200;2024-02-21T03:23:50;18.80;;;7.03;;
417;SDS011;49;48.530;9.200;2024-02-21T03:26:17;20.43;;;7.37;;
417;SDS011;49;48.530;9.200;2024-02-21T03:28:44;25.70;;;7.50;;
417;SDS011;49;48.530;9.200;2024-02-21T03:31:11;17.73;;;7.30;;
417;SDS011;49;48.530;9.200;2024-02-21T03:33:40;23.87;;;7.47;;
417;SDS011;49;48.530;9.200;2024-02-21T03:36:12;22.40;;;7.03;;
417;SDS011;49;48.530;9.200;2024-02-21T03:38:40;16.50;;;6.70;;
417;SDS011;49;48.530;9.200;2024-02-21T03:41:06;16.47;;;6.93;;
417;SDS011;49;48.530;9.200;2024-02-21T03:43:33;16.53;;;7.83;;
417;SDS011;49;48.530;9.200;2024-02-21T03:46:00;21.97;;;7.40;;
417;SDS011;49;48.530;9.200;2024-02-21T03:48:27;14.73;;;7.70;;
417;SDS011;49;48.530;9.200;2024-02-21T03:50:55;16.83;;;7.37;;
417;SDS011;49;48.530;9.200;2024-02-21T03:53:22;26.63;;;7.87;;
417;SDS011;49;48.530;9.200;2024-02-21T03:55:49;25.20;;;8.30;;
417;SDS011;49;48.530;9.200;2024-02-21T03:58:16;19.67;;;7.63;;
417;SDS011;49;48.530;9.200;2024-02-21T04:00:43;21.73;;;7.40;;
417;SDS011;49;48.530;9.200;2024-02-21T04:03:09;14.37;;;7.80;;
417;SDS011;49;48.530;9.200;2024-02-21T04:05:36;22.67;;;7.60;;
417;SDS011;49;48.530;9.200;2024-02-21T04:08:05;13.70;;;6.77;;
417;SDS011;49;48.530;9.200;2024-02-21T04:10:33;28.03;;;8.23;;
417;SDS011;49;48.530;9.200;2024-02-21T04:13:00;18.20;;;7.20;;
417;SDS011;49;48.530;9.200;2024-02-21T04:15:27;16.90;;;7.93;;
417;SDS011;49;48.530;9.200;2024-02-21T04:17:54;19.00;;;7.70;;
417;SDS011;49;48.530;9.200;2024-02-21T04:20:21;24.70;;;8.00;;
417;SDS011;49;48.530;9.200;2024-02-21T04:22:48;22.60;;;7.30;;
417;SDS011;49;48.530;9.200;2024-02-21T04:25:16;18.80;;;6.73;;
417;SDS011;49;48.530;9.200;2024-02-21T04:27:44;12.70;;;5.97;;
417;SDS011;49;48.530;9.200;2024-02-21T04:30:11;17.07;;;6.63;;
417;SDS011;49;48.530;9.200;2024-02-21T04:32:38;21.93;;;6.10;;
417;SDS011;49;48.530;9.200;2024-02-21T04:35:05;16.90;;;6.20;;
417;SDS011;49;48.530;9.200;2024-02-21T04:37:33;18.60;;;7.10;;
417;SDS011;49;48.530;9.200;2024-02-21T04:40:00;20.93;;;6.87;;
417;SDS011;49;48.530;9.200;2024-02-21T04:42:28;15.10;;;6.60;;
417;SDS011;49;48.530;9.200;2024-02-21T04:44:55;24.60;;;7.67;;
417;SDS011;49;48.530;9.200;2024-02-21T04:47:22;16.83;;;6.30;;
417;SDS011;49;48.530;9.200;2024-02-21T04:49:50;14.77;;;5.37;;
417;SDS011;49;48.530;9.200;2024-02-21T04:52:17;16.67;;;6.67;;
417;SDS011;49;48.530;9.200;2024-02-21T04:54:43;15.97;;;7.40;;
417;SDS011;49;48.530;9.200;2024-02-21T04:57:10;26.63;;;6.20;;
417;SDS011;49;48.530;9.200;2024-02-21T04:59:43;16.43;;;7.20;;
417;SDS011;49;48.530;9.200;2024-02-21T05:02:10;15.43;;;6.40;;
417;SDS011;49;48.530;9.200;2024-02-21T05:04:37;15.43;;;5.93;;
417;SDS011;49;48.530;9.200;2024-02-21T05:07:05;18.83;;;7.20;;
417;SDS011;49;48.530;9.200;2024-02-21T05:09:32;25.83;;;8.03;;
417;SDS011;49;48.530;9.200;2024-02-21T05:11:58;24.00;;;7.63;;
417;SDS011;49;48.530;9.200;2024-02-21T05:14:25;24.70;;;7.83;;
417;SDS011;49;48.530;9.200;2024-02-21T05:16:54;21.20;;;7.77;;
417;SDS011;49;48.530;9.200;2024-02-21T05:19:21;18.93;;;6.57;;
417;SDS011;49;48.530;9.200;2024-02-21T05:21:48;19.03;;;6.70;;
417;SDS011;49;48.530;9.200;2024-02-21T05:24:15;17.33;;;6.50;;
417;SDS011;49;48.530;9.200;2024-02-21T05:26:42;16.50;;;8.50;;
417;SDS011;49;48.530;9.200;2024-02-21T05:29:08;17.97;;;6.60;;
417;SDS011;49;48.530;9.200;2024-02-21T05:31:43;11.63;;;5.80;;
417;SDS011;49;48.530;9.200;2024-02-21T05:34:23;14.80;;;5.97;;
417;SDS011;49;48.530;9.200;2024-02-21T05:36:50;20.53;;;6.37;;
417;SDS011;49;48.530;9.200;2024-02-21T05:39:17;13.73;;;6.50;;
417;SDS011;49;48.530;9.200;2024-02-21T05:41:44;17.63;;;6.80;;
417;SDS011;49;48.530;9.200;2024-02-21T05:44:11;18.57;;;7.67;;
417;SDS011;49;48.530;9.200;2024-02-21T05:46:38;18.70;;;6.77;;
417;SDS011;49;48.530;9.200;2024-02-21T05:49:06;14.27;;;6.13;;
417;SDS011;49;48.530;9.200;2024-02-21T05:51:33;12.80;;;6.60;;
417;SDS011;49;48.530;9.200;2024-02-21T05:54:00;16.87;;;6.30;;
417;SDS011;49;48.530;9.200;2024-02-21T05:56:27;15.33;;;6.23;;
417;SDS011;49;48.530;9.200;2024-02-21T05:58:54;18.37;;;6.33;;
417;SDS011;49;48.530;9.200;2024-02-21T06:01:21;21.10;;;6.40;;
417;SDS011;49;48.530;9.200;2024-02-21T06:03:48;20.60;;;6.50;;
417;SDS011;49;48.530;9.200;2024-02-21T06:06:16;16.03;;;7.00;;
417;SDS011;49;48.530;9.200;2024-02-21T06:08:43;16.50;;;6.43;;
417;SDS011;49;48.530;9.200;2024-02-21T06:11:11;22.07;;;7.07;;
417;SDS011;49;48.530;9.200;2024-02-21T06:13:52;34.47;;;7.10;;
417;SDS011;49;48.530;9.200;2024-02-21T06:16:19;10.93;;;5.67;;
417;SDS011;49;48.530;9.200;2024-02-21T06:18:46;16.33;;;5.50;;
417;SDS011;49;48.530;9.200;2024-02-21T06:21:13;16.13;;;6.20;;
417;SDS011;49;48.530;9.200;2024-02-21T06:23:43;23.37;;;5.80;;
417;SDS011;49;48.530;9.200;2024-02-21T06:26:10;17.90;;;6.20;;
417;SDS011;49;48.530;9.200;2024-02-21T06:28:37;12.03;;;5.57;;
417;SDS011;49;48.530;9.200;2024-02-21T06:31:03;26.87;;;6.90;;
417;SDS011;49;48.530;9.200;2024-02-21T06:33:30;14.00;;;6.70;;
417;SDS011;49;48.530;9.200;2024-02-21T06:35:57;14.97;;;6.93;;
417;SDS011;49;48.530;9.200;2024-02-21T06:38:24;10.63;;;6.10;;
417;SDS011;49;48.530;9.200;2024-02-21T06:40:52;23.53;;;7.30;;
417;SDS011;49;48.530;9.200;2024-02-21T06:43:20;22.13;;;6.77;;
417;SDS011;49;48.530;9.200;2024-02-21T06:45:47;25.50;;;6.97;;
417;SDS011;49;48.530;9.200;2024-02-21T06:48:28;19.00;;;6.80;;
417;SDS011;49;48.530;9.200;2024-02-21T06:50:55;24.27;;;8.00;;
417;SDS011;49;48.530;9.200;2024-02-21T06:53:22;12.30;;;5.57;;
417;SDS011;49;48.530;9.200;2024-02-21T06:55:52;19.30;;;6.23;;
417;SDS011;49;48.530;9.200;2024-02-21T06:58:19;21.10;;;7.80;;
417;SDS011;49;48.530;9.200;2024-02-21T07:00:47;20.77;;;7.50;;
417;SDS011;49;48.530;9.200;2024-02-21T07:03:21;23.60;;;8.53;;
417;SDS011;49;48.530;9.200;2024-02-21T07:05:50;20.03;;;7.20;;
417;SDS011;49;48.530;9.200;2024-02-21T07:08:16;25.03;;;7.80;;
417;SDS011;49;48.530;9.200;2024-02-21T07:10:43;34.63;;;7.10;;
417;SDS011;49;48.530;9.200;2024-02-21T07:13:11;15.57;;;6.03;;
417;SDS011;49;48.530;9.200;2024-02-21T07:15:40;29.37;;;6.67;;
417;SDS011;49;48.530;9.200;2024-02-21T07:18:07;14.00;;;5.70;;
417;SDS011;49;48.530;9.200;2024-02-21T07:20:34;13.63;;;5.43;;
417;SDS011;49;48.530;9.200;2024-02-21T07:23:03;11.80;;;5.60;;
417;SDS011;49;48.530;9.200;2024-02-21T07:25:30;15.10;;;6.23;;
417;SDS011;49;48.530;9.200;2024-02-21T07:27:57;13.20;;;6.30;;
417;SDS011;49;48.530;9.200;2024-02-21T07:30:25;18.43;;;6.60;;
417;SDS011;49;48.530;9.200;2024-02-21T07:32:52;15.07;;;6.53;;
417;SDS011;49;48.530;9.200;2024-02-21T07:35:18;22.33;;;7.10;;
417;SDS011;49;48.530;9.200;2024-02-21T07:37:45;19.50;;;6.87;;
417;SDS011;49;48.530;9.200;2024-02-21T07:40:13;14.00;;;5.53;;
417;SDS011;49;48.530;9.200;2024-02-21T07:42:40;20.93;;;6.13;;
417;SDS011;49;48.530;9.200;2024-02-21T07:45:07;15.20;;;8.23;;
417;SDS011;49;48.530;9.200;2024-02-21T07:47:36;22.20;;;7.00;;
417;SDS011;49;48.530;9.200;2024-02-21T07:50:03;15.93;;;6.10;;
417;SDS011;49;48.530;9.200;2024-02-21T07:52:31;17.90;;;5.47;;
417;SDS011;49;48.530;9.200;2024-02-21T08:07:52;18.27;;;6.10;;
417;SDS011;49;48.530;9.200;2024-02-21T08:10:19;10.43;;;5.37;;
417;SDS011;49;48.530;9.200;2024-02-21T08:12:46;13.70;;;5.40;;
417;SDS011;49;48.530;9.200;2024-02-21T08:15:13;13.47;;;5.30;;
417;SDS011;49;48.530;9.200;2024-02-21T08:20:16;14.63;;;5.57;;
417;SDS011;49;48.530;9.200;2024-02-21T08:23:01;16.73;;;5.57;;
417;SDS011;49;48.530;9.200;2024-02-21T08:25:28;23.10;;;5.57;;
417;SDS011;49;48.530;9.200;2024-02-21T08:27:57;15.50;;;5.70;;
417;SDS011;49;48.530;9.200;2024-02-21T08:30:28;22.87;;;5.60;;
417;SDS011;49;48.530;9.200;2024-02-21T08:32:59;16.93;;;5.73;;
417;SDS011;49;48.530;9.200;2024-02-21T08:40:47;14.67;;;4.93;;
417;SDS011;49;48.530;9.200;2024-02-21T08:43:15;16.13;;;6.03;;
417;SDS011;49;48.530;9.200;2024-02-21T08:45:42;13.50;;;5.07;;
417;SDS011;49;48.530;9.200;2024-02-21T08:48:09;17.27;;;4.83;;
417;SDS011;49;48.530;9.200;2024-02-21T08:50:35;17.30;;;5.67;;
417;SDS011;49;48.530;9.200;2024-02-21T08:53:03;16.93;;;5.90;;
417;SDS011;49;48.530;9.200;2024-02-21T08:55:31;24.67;;;5.90;;
417;SDS011;49;48.530;9.200;2024-02-21T08:58:02;19.13;;;7.03;;
417;SDS011;49;48.530;9.200;2024-02-21T09:00:30;10.53;;;5.17;;
417;SDS011;49;48.530;9.200;2024-02-21T09:02:58;23.73;;;7.43;;
417;SDS011;49;48.530;9.200;2024-02-21T09:05:36;15.07;;;6.50;;
417;SDS011;49;48.530;9.200;2024-02-21T09:08:04;13.17;;;4.80;;
417;SDS011;49;48.530;9.200;2024-02-21T09:13:13;13.27;;;5.20;;
417;SDS011;49;48.530;9.200;2024-02-21T09:15:41;18.80;;;5.70;;
417;SDS011;49;48.530;9.200;2024-02-21T09:18:12;13.93;;;5.80;;
417;SDS011;49;48.530;9.200;2024-02-21T09:20:40;10.53;;;5.23;;
417;SDS011;49;48.530;9.200;2024-02-21T09:23:09;14.77;;;5.10;;
417;SDS011;49;48.530;9.200;2024-02-21T09:25:36;9.90;;;5.50;;
417;SDS011;49;48.530;9.200;2024-02-21T09:28:08;16.93;;;6.00;;
417;SDS011;49;48.530;9.200;2024-02-21T09:30:37;16.00;;;5.40;;
417;SDS011;49;48.530;9.200;2024-02-21T09:33:04;11.43;;;4.90;;
417;SDS011;49;48.530;9.200;2024-02-21T09:35:31;19.33;;;5.70;;
417;SDS011;49;48.530;9.200;2024-02-21T09:37:59;15.73;;;5.73;;
417;SDS011;49;48.530;9.200;2024-02-21T09:40:27;14.90;;;5.70;;
417;SDS011;49;48.530;9.200;2024-02-21T09:42:55;17.43;;;5.67;;
417;SDS011;49;48.530;9.200;2024-02-21T09:45:29;13.10;;;5.20;;
417;SDS011;49;48.530;9.200;2024-02-21T09:48:01;10.03;;;5.20;;
417;SDS011;49;48.530;9.200;2024-02-21T09:50:50;13.63;;;4.77;;
417;SDS011;49;48.530;9.200;2024-02-21T09:53:19;10.10;;;5.27;;
417;SDS011;49;48.530;9.200;2024-02-21T09:55:49;16.97;;;4.70;;
417;SDS011;49;48.530;9.200;2024-02-21T09:58:16;9.67;;;4.60;;
417;SDS011;49;48.530;9.200;2024-02-21T10:00:43;20.80;;;6.73;;
417;SDS011;49;48.530;9.200;2024-02-21T10:03:11;17.30;;;5.73;;
417;SDS011;49;48.530;9.200;2024-02-21T10:05:38;16.80;;;5.73;;
417;SDS011;49;48.530;9.200;2024-02-21T10:08:13;11.13;;;4.70;;
417;SDS011;49;48.530;9.200;2024-02-21T10:10:42;13.30;;;5.47;;
417;SDS011;49;48.530;9.200;2024-02-21T10:13:10;13.00;;;5.30;;
417;SDS011;49;48.530;9.200;2024-02-21T10:15:37;23.10;;;5.53;;
417;SDS011;49;48.530;9.200;2024-02-21T10:18:04;31.80;;;10.73;;
417;SDS011;49;48.530;9.200;2024-02-21T10:20:33;14.73;;;5.37;;
417;SDS011;49;48.530;9.200;2024-02-21T10:23:00;17.73;;;6.07;;
417;SDS011;49;48.530;9.200;2024-02-21T10:25:28;18.53;;;5.33;;
417;SDS011;49;48.530;9.200;2024-02-21T10:27:56;15.70;;;5.10;;
417;SDS011;49;48.530;9.200;2024-02-21T10:30:23;11.90;;;4.93;;
417;SDS011;49;48.530;9.200;2024-02-21T10:32:50;14.17;;;4.53;;
417;SDS011;49;48.530;9.200;2024-02-21T10:35:25;18.73;;;6.00;;
417;SDS011;49;48.530;9.200;2024-02-21T10:37:54;13.70;;;4.80;;
417;SDS011;49;48.530;9.200;2024-02-21T10:40:23;12.07;;;5.20;;
417;SDS011;49;48.530;9.200;2024-02-21T10:42:51;6.97;;;4.30;;
417;SDS011;49;48.530;9.200;2024-02-21T10:45:23;15.17;;;5.53;;
417;SDS011;49;48.530;9.200;2024-02-21T10:47:56;19.87;;;5.27;;
417;SDS011;49;48.530;9.200;2024-02-21T10:50:32;16.27;;;6.40;;
417;SDS011;49;48.530;9.200;2024-02-21T10:53:15;13.20;;;4.77;;
417;SDS011;49;48.530;9.200;2024-02-21T10:55:51;12.00;;;4.63;;
417;SDS011;49;48.530;9.200;2024-02-21T10:58:25;10.83;;;5.40;;
417;SDS011;49;48.530;9.200;2024-02-21T11:00:54;13.50;;;4.40;;
417;SDS011;49;48.530;9.200;2024-02-21T11:03:22;10.73;;;4.37;;
417;SDS011;49;48.530;9.200;2024-02-21T11:05:49;18.43;;;6.23;;
417;SDS011;49;48.530;9.200;2024-02-21T11:08:19;18.33;;;5.27;;
417;SDS011;49;48.530;9.200;2024-02-21T11:10:46;15.10;;;4.40;;
417;SDS011;49;48.530;9.200;2024-02-21T11:13:13;11.80;;;5.10;;
417;SDS011;49;48.530;9.200;2024-02-21T11:15:41;15.13;;;3.87;;
417;SDS011;49;48.530;9.200;2024-02-21T11:18:09;10.43;;;4.70;;
417;SDS011;49;48.530;9.200;2024-02-21T11:20:36;9.27;;;3.60;;
417;SDS011;49;48.530;9.200;2024-02-21T11:23:04;9.90;;;4.20;;
417;SDS011;49;48.530;9.200;2024-02-21T11:25:33;9.87;;;4.13;;
417;SDS011;49;48.530;9.200;2024-02-21T11:28:01;11.23;;;4.33;;
417;SDS011;49;48.530;9.200;2024-02-21T11:30:30;6.77;;;3.80;;
417;SDS011;49;48.530;9.200;2024-02-21T11:32:59;12.70;;;4.60;;
417;SDS011;49;48.530;9.200;2024-02-21T11:35:30;8.70;;;4.07;;
417;SDS011;49;48.530;9.200;2024-02-21T11:38:07;10.13;;;3.80;;
417;SDS011;49;48.530;9.200;2024-02-21T11:40:39;10.10;;;3.50;;
417;SDS011;49;48.530;9.200;2024-02-21T11:43:07;8.07;;;4.07;;
417;SDS011;49;48.530;9.200;2024-02-21T11:45:34;13.60;;;4.30;;
417;SDS011;49;48.530;9.200;2024-02-21T11:48:03;9.60;;;4.00;;
417;SDS011;49;48.530;9.200;2024-02-21T11:50:33;9.43;;;4.33;;
417;SDS011;49;48.530;9.200;2024-02-21T11:53:01;14.80;;;4.00;;
417;SDS011;49;48.530;9.200;2024-02-21T11:55:27;10.60;;;4.27;;
417;SDS011;49;48.530;9.200;2024-02-21T11:57:57;10.97;;;3.80;;
417;SDS011;49;48.530;9.200;2024-02-21T12:00:25;6.13;;;3.77;;
417;SDS011;49;48.530;9.200;2024-02-21T12:02:54;14.00;;;3.80;;
417;SDS011;49;48.530;9.200;2024-02-21T12:05:26;21.03;;;3.27;;
417;SDS011;49;48.530;9.200;2024-02-21T12:07:55;8.70;;;3.67;;
417;SDS011;49;48.530;9.200;2024-02-21T12:10:23;7.63;;;3.33;;
417;SDS011;49;48.530;9.200;2024-02-21T12:12:52;11.20;;;3.70;;
417;SDS011;49;48.530;9.200;2024-02-21T12:15:25;12.43;;;3.70;;
417;SDS011;49;48.530;9.200;2024-02-21T12:17:52;7.73;;;3.60;;
417;SDS011;49;48.530;9.200;2024-02-21T12:20:20;13.50;;;3.80;;
417;SDS011;49;48.530;9.200;2024-02-21T12:22:49;6.40;;;3.10;;
417;SDS011;49;48.530;9.200;2024-02-21T12:25:17;7.03;;;3.03;;
417;SDS011;49;48.530;9.200;2024-02-21T12:27:44;8.43;;;3.40;;
417;SDS011;49;48.530;9.200;2024-02-21T12:30:11;7.00;;;3.00;;
417;SDS011;49;48.530;9.200;2024-02-21T12:32:40;9.80;;;3.27;;
417;SDS011;49;48.530;9.200;2024-02-21T12:35:08;8.10;;;2.87;;
417;SDS011;49;48.530;9.200;2024-02-21T12:37:35;8.13;;;3.20;;
417;SDS011;49;48.530;9.200;2024-02-21T12:40:03;6.60;;;3.23;;
417;SDS011;49;48.530;9.200;2024-02-21T12:42:32;5.73;;;3.13;;
417;SDS011;49;48.530;9.200;2024-02-21T12:44:59;13.00;;;4.00;;
417;SDS011;49;48.530;9.200;2024-02-21T12:47:26;9.63;;;3.33;;
417;SDS011;49;48.530;9.200;2024-02-21T12:49:55;3.67;;;2.83;;
417;SDS011;49;48.530;9.200;2024-02-21T12:52:22;6.37;;;2.87;;
417;SDS011;49;48.530;9.200;2024-02-21T12:54:50;9.03;;;3.57;;
417;SDS011;49;48.530;9.200;2024-02-21T12:57:17;9.03;;;3.17;;
417;SDS011;49;48.530;9.200;2024-02-21T12:59:44;10.50;;;3.50;;
417;SDS011;49;48.530;9.200;2024-02-21T13:02:11;5.73;;;3.00;;
417;SDS011;49;48.530;9.200;2024-02-21T13:04:38;4.47;;;2.50;;
417;SDS011;49;48.530;9.200;2024-02-21T13:07:07;7.53;;;3.20;;
417;SDS011;49;48.530;9.200;2024-02-21T13:09:35;7.63;;;2.83;;
417;SDS011;49;48.530;9.200;2024-02-21T13:12:02;5.30;;;2.87;;
417;SDS011;49;48.530;9.200;2024-02-21T13:14:29;8.40;;;3.00;;
417;SDS011;49;48.530;9.200;2024-02-21T13:16:58;5.47;;;2.80;;
417;SDS011;49;48.530;9.200;2024-02-21T13:19:25;4.30;;;2.70;;
417;SDS011;49;48.530;9.200;2024-02-21T13:21:52;4.47;;;2.50;;
417;SDS011;49;48.530;9.200;2024-02-21T13:24:21;6.27;;;2.83;;
417;SDS011;49;48.530;9.200;2024-02-21T13:26:48;4.63;;;2.80;;
417;SDS011;49;48.530;9.200;2024-02-21T13:29:15;7.27;;;2.73;;
417;SDS011;49;48.530;9.200;2024-02-21T13:31:43;7.17;;;3.20;;
417;SDS011;49;48.530;9.200;2024-02-21T13:34:10;6.73;;;2.80;;
417;SDS011;49;48.530;9.200;2024-02-21T13:36:40;4.30;;;2.50;;
417;SDS011;49;48.530;9.200;2024-02-21T13:39:08;8.83;;;2.80;;
417;SDS011;49;48.530;9.200;2024-02-21T13:41:39;13.07;;;3.43;;
417;SDS011;49;48.530;9.200;2024-02-21T13:44:07;5.70;;;2.70;;
417;SDS011;49;48.530;9.200;2024-02-21T13:46:35;5.43;;;2.70;;
417;SDS011;49;48.530;9.200;2024-02-21T13:49:04;13.37;;;3.43;;
417;SDS011;49;48.530;9.200;2024-02-21T13:51:32;10.90;;;2.90;;
417;SDS011;49;48.530;9.200;2024-02-21T13:54:01;6.73;;;3.20;;
417;SDS011;49;48.530;9.200;2024-02-21T13:56:30;7.03;;;2.90;;
417;SDS011;49;48.530;9.200;2024-02-21T13:58:59;10.23;;;2.97;;
417;SDS011;49;48.530;9.200;2024-02-21T14:01:26;12.50;;;3.07;;
417;SDS011;49;48.530;9.200;2024-02-21T14:03:54;6.43;;;2.90;;
417;SDS011;49;48.530;9.200;2024-02-21T14:06:21;6.80;;;2.80;;
417;SDS011;49;48.530;9.200;2024-02-21T14:08:48;4.60;;;2.70;;
417;SDS011;49;48.530;9.200;2024-02-21T14:11:15;14.93;;;3.33;;
417;SDS011;49;48.530;9.200;2024-02-21T14:13:42;18.67;;;4.20;;
417;SDS011;49;48.530;9.200;2024-02-21T14:16:11;7.73;;;3.40;;
417;SDS011;49;48.530;9.200;2024-02-21T14:18:39;7.43;;;3.07;;
417;SDS011;49;48.530;9.200;2024-02-21T14:21:07;5.93;;;2.70;;
417;SDS011;49;48.530;9.200;2024-02-21T14:23:35;8.93;;;3.30;;
417;SDS011;49;48.530;9.200;2024-02-21T14:26:02;9.10;;;3.33;;
417;SDS011;49;48.530;9.200;2024-02-21T14:28:30;7.90;;;3.30;;
417;SDS011;49;48.530;9.200;2024-02-21T14:30:58;4.67;;;3.00;;
417;SDS011;49;48.530;9.200;2024-02-21T14:33:27;5.00;;;3.03;;
417;SDS011;49;48.530;9.200;2024-02-21T14:35:55;6.40;;;3.20;;
417;SDS011;49;48.530;9.200;2024-02-21T14:38:23;9.77;;;3.90;;
417;SDS011;49;48.530;9.200;2024-02-21T14:40:50;12.13;;;3.80;;
417;SDS011;49;48.530;9.200;2024-02-21T14:43:17;9.07;;;2.77;;
417;SDS011;49;48.530;9.200;2024-02-21T14:45:46;12.53;;;3.53;;
417;SDS011;49;48.530;9.200;2024-02-21T14:48:13;8.27;;;3.20;;
417;SDS011;49;48.530;9.200;2024-02-21T14:50:42;4.37;;;2.63;;
417;SDS011;49;48.530;9.200;2024-02-21T14:53:09;9.07;;;3.53;;
417;SDS011;49;48.530;9.200;2024-02-21T14:55:36;9.27;;;3.10;;
417;SDS011;49;48.530;9.200;2024-02-21T14:58:06;5.30;;;2.97;;
417;SDS011;49;48.530;9.200;2024-02-21T15:00:34;7.70;;;3.03;;
417;SDS011;49;48.530;9.200;2024-02-21T15:03:01;7.33;;;3.27;;
417;SDS011;49;48.530;9.200;2024-02-21T15:05:28;8.23;;;3.27;;
417;SDS011;49;48.530;9.200;2024-02-21T15:07:56;10.00;;;3.50;;
417;SDS011;49;48.530;9.200;2024-02-21T15:10:24;11.20;;;3.80;;
417;SDS011;49;48.530;9.200;2024-02-21T15:12:51;4.63;;;3.10;;
417;SDS011;49;48.530;9.200;2024-02-21T15:15:18;6.63;;;3.10;;
417;SDS011;49;48.530;9.200;2024-02-21T15:17:45;8.40;;;3.20;;
417;SDS011;49;48.530;9.200;2024-02-21T15:20:12;9.50;;;3.20;;
417;SDS011;49;48.530;9.200;2024-02-21T15:22:39;6.53;;;3.00;;
417;SDS011;49;48.530;9.200;2024-02-21T15:25:08;11.60;;;3.60;;
417;SDS011;49;48.530;9.200;2024-02-21T15:27:40;6.67;;;3.30;;
417;SDS011;49;48.530;9.200;2024-02-21T15:30:08;8.00;;;3.53;;
417;SDS011;49;48.530;9.200;2024-02-21T15:32:39;6.73;;;2.67;;
417;SDS011;49;48.530;9.200;2024-02-21T15:35:08;7.60;;;3.50;;
417;SDS011;49;48.530;9.200;2024-02-21T15:37:36;8.37;;;4.03;;
417;SDS011;49;48.530;9.200;2024-02-21T15:40:03;15.37;;;3.50;;
417;SDS011;49;48.530;9.200;2024-02-21T15:42:34;15.60;;;3.30;;
417;SDS011;49;48.530;9.200;2024-02-21T15:45:01;8.90;;;3.20;;
417;SDS011;49;48.530;9.200;2024-02-21T15:47:29;6.27;;;2.77;;
417;SDS011;49;48.530;9.200;2024-02-21T15:49:56;5.93;;;3.40;;
417;SDS011;49;48.530;9.200;2024-02-21T15:52:25;9.63;;;2.97;;
417;SDS011;49;48.530;9.200;2024-02-21T15:54:52;6.13;;;3.17;;
417;SDS011;49;48.530;9.200;2024-02-21T15:57:19;10.13;;;4.70;;
417;SDS011;49;48.530;9.200;2024-02-21T15:59:50;6.90;;;3.37;;
417;SDS011;49;48.530;9.200;2024-02-21T16:02:19;9.10;;;4.13;;
417;SDS011;49;48.530;9.200;2024-02-21T16:04:53;6.10;;;4.00;;
417;SDS011;49;48.530;9.200;2024-02-21T16:07:21;17.33;;;5.30;;
417;SDS011;49;48.530;9.200;2024-02-21T16:09:48;13.27;;;4.30;;
417;SDS011;49;48.530;9.200;2024-02-21T16:12:15;7.83;;;4.13;;
417;SDS011;49;48.530;9.200;2024-02-21T16:14:42;15.43;;;4.73;;
417;SDS011;49;48.530;9.200;2024-02-21T16:17:17;7.60;;;4.40;;